createdAt,value
2023-04-22T00:01:00.024Z,72.32
2023-04-22T00:03:24.853Z,72.38
2023-04-22T00:05:47.179Z,72.38
2023-04-22T00:08:09.223Z,72.42
2023-04-22T00:10:31.021Z,72.21
2023-04-22T00:12:52.846Z,72.03
2023-04-22T00:15:14.704Z,72.39
2023-04-22T00:17:37.089Z,72.51
2023-04-22T00:19:59.308Z,72.24
2023-04-22T00:22:21.200Z,72.50
2023-04-22T00:24:43.156Z,72.51
2023-04-22T00:27:04.924Z,72.76
2023-04-22T00:29:27.008Z,72.53
2023-04-22T00:31:48.902Z,72.79
2023-04-22T00:34:11.645Z,72.67
2023-04-22T00:36:33.449Z,72.78
2023-04-22T00:38:55.270Z,72.67
2023-04-22T00:41:18.286Z,72.78
2023-04-22T00:43:40.090Z,72.90
2023-04-22T00:46:02.411Z,73.08
2023-04-22T00:48:28.673Z,73.01
2023-04-22T00:50:51.197Z,73.22
2023-04-22T00:53:12.962Z,73.28
2023-04-22T00:55:35.315Z,73.13
2023-04-22T00:58:02.040Z,73.29
2023-04-22T01:00:27.436Z,73.20
2023-04-22T01:02:49.736Z,73.28
2023-04-22T01:05:11.706Z,73.18
2023-04-22T01:07:34.380Z,73.32
2023-04-22T01:09:57.398Z,73.21
2023-04-22T01:12:19.174Z,73.23
2023-04-22T01:14:41.544Z,73.11
2023-04-22T01:17:03.655Z,73.51
2023-04-22T01:19:26.455Z,73.40
2023-04-22T01:21:54.381Z,73.44
2023-04-22T01:24:16.856Z,73.71
2023-04-22T01:26:39.818Z,73.48
2023-04-22T01:29:03.242Z,73.43
2023-04-22T01:31:25.236Z,73.38
2023-04-22T01:33:48.463Z,73.76
2023-04-22T01:36:13.148Z,73.54
2023-04-22T01:38:35.329Z,73.57
2023-04-22T01:41:02.372Z,73.70
2023-04-22T01:43:25.321Z,73.75
2023-04-22T01:45:47.164Z,73.39
2023-04-22T01:48:11.203Z,74.01
2023-04-22T01:50:33.182Z,74.05
2023-04-22T01:52:55.292Z,73.99
2023-04-22T01:55:17.688Z,74.08
2023-04-22T01:57:39.901Z,74.56
2023-04-22T02:00:01.974Z,74.55
2023-04-22T02:02:34.572Z,74.48
2023-04-22T02:04:56.715Z,74.21
2023-04-22T02:07:18.502Z,74.28
2023-04-22T02:09:40.535Z,74.22
2023-04-22T02:12:02.643Z,74.72
2023-04-22T02:14:24.546Z,74.63
2023-04-22T02:16:46.342Z,74.46
2023-04-22T02:19:08.228Z,74.82
2023-04-22T02:21:32.584Z,74.94
2023-04-22T02:23:54.610Z,74.77
2023-04-22T02:26:17.369Z,74.49
2023-04-22T02:28:39.252Z,74.76
2023-04-22T02:31:01.623Z,74.52
2023-04-22T02:33:23.775Z,74.51
2023-04-22T02:35:48.488Z,74.69
2023-04-22T02:38:13.463Z,74.67
2023-04-22T02:40:35.284Z,75.00
2023-04-22T02:42:57.164Z,74.74
2023-04-22T02:45:19.140Z,74.99
2023-04-22T02:47:40.892Z,75.39
2023-04-22T02:50:02.817Z,75.01
2023-04-22T02:52:24.611Z,75.12
2023-04-22T02:54:46.527Z,74.96
2023-04-22T02:57:08.726Z,74.98
2023-04-22T02:59:31.893Z,75.15
2023-04-22T03:01:54.199Z,75.38
2023-04-22T03:04:39.177Z,75.56
2023-04-22T03:07:01.015Z,75.42
2023-04-22T03:09:22.791Z,75.92
2023-04-22T03:11:44.918Z,75.28
2023-04-22T03:14:06.710Z,75.68
2023-04-22T03:16:28.523Z,75.70
2023-04-22T03:18:52.811Z,75.72
2023-04-22T03:21:15.282Z,75.71
2023-04-22T03:23:37.033Z,75.88
2023-04-22T03:26:00.213Z,76.26
2023-04-22T03:28:22.821Z,76.27
2023-04-22T03:30:45.061Z,76.62
2023-04-22T03:33:07.039Z,76.63
2023-04-22T03:35:35.539Z,76.75
2023-04-22T03:37:57.351Z,76.86
2023-04-22T03:40:24.549Z,77.27
2023-04-22T03:42:46.468Z,77.47
2023-04-22T03:45:09.025Z,77.53
2023-04-22T03:47:35.184Z,77.27
2023-04-22T03:50:05.959Z,77.01
2023-04-22T03:52:29.066Z,77.36
2023-04-22T03:54:54.268Z,77.29
2023-04-22T03:57:16.255Z,77.40
2023-04-22T03:59:38.447Z,77.28
2023-04-22T04:02:01.142Z,77.25
2023-04-22T04:04:23.886Z,77.19
2023-04-22T04:06:51.231Z,77.38
2023-04-22T04:09:14.680Z,77.20
2023-04-22T04:11:36.554Z,77.47
2023-04-22T04:13:59.125Z,77.27
2023-04-22T04:16:30.122Z,77.10
2023-04-22T04:18:59.121Z,77.15
2023-04-22T04:21:21.805Z,77.12
2023-04-22T04:23:47.854Z,76.92
2023-04-22T04:26:11.015Z,77.37
2023-04-22T04:28:36.283Z,76.99
2023-04-22T04:30:59.529Z,77.04
2023-04-22T04:33:21.444Z,77.22
2023-04-22T04:35:44.904Z,77.14
2023-04-22T04:38:11.958Z,77.26
2023-04-22T04:40:36.081Z,77.47
2023-04-22T04:43:08.196Z,77.09
2023-04-22T04:45:48.660Z,76.94
2023-04-22T04:48:19.802Z,77.14
2023-04-22T04:50:47.388Z,77.10
2023-04-22T04:53:10.832Z,77.21
2023-04-22T04:55:36.219Z,77.42
2023-04-22T04:58:03.054Z,77.53
2023-04-22T05:00:24.808Z,77.12
2023-04-22T05:02:47.189Z,77.21
2023-04-22T05:05:09.698Z,77.43
2023-04-22T05:07:32.875Z,77.53
2023-04-22T05:09:54.819Z,77.47
2023-04-22T05:12:17.213Z,77.41
2023-04-22T05:14:39.132Z,77.37
2023-04-22T05:17:03.103Z,77.37
2023-04-22T05:19:25.314Z,77.45
2023-04-22T05:21:49.772Z,77.64
2023-04-22T05:24:12.646Z,77.38
2023-04-22T05:26:34.534Z,77.61
2023-04-22T05:29:03.149Z,77.54
2023-04-22T05:31:25.366Z,77.66
2023-04-22T05:33:47.173Z,77.47
2023-04-22T05:36:09.595Z,77.52
2023-04-22T05:38:32.131Z,77.84
2023-04-22T05:40:55.106Z,77.46
2023-04-22T05:43:16.920Z,77.62
2023-04-22T05:45:44.690Z,77.62
2023-04-22T05:48:08.973Z,77.63
2023-04-22T05:50:36.678Z,77.41
2023-04-22T05:53:03.237Z,77.51
2023-04-22T05:55:25.098Z,77.39
2023-04-22T05:57:47.689Z,77.61
2023-04-22T06:00:35.742Z,77.67
2023-04-22T06:03:33.599Z,77.66
2023-04-22T06:05:57.716Z,77.90
2023-04-22T06:08:19.681Z,78.01
2023-04-22T06:10:45.844Z,77.82
2023-04-22T06:13:07.905Z,77.91
2023-04-22T06:15:30.317Z,78.13
2023-04-22T06:17:54.660Z,78.16
2023-04-22T06:20:16.777Z,78.18
2023-04-22T06:22:40.510Z,78.23
2023-04-22T06:25:04.537Z,79.15
2023-04-22T06:27:26.988Z,79.21
2023-04-22T06:29:48.989Z,78.69
2023-04-22T06:32:11.307Z,78.96
2023-04-22T06:34:34.130Z,78.90
2023-04-22T06:36:57.169Z,79.25
2023-04-22T06:39:19.229Z,79.71
2023-04-22T06:41:49.216Z,80.19
2023-04-22T06:44:26.045Z,80.45
2023-04-22T06:47:06.814Z,80.14
2023-04-22T06:49:47.553Z,80.21
2023-04-22T06:52:16.074Z,79.84
2023-04-22T06:54:38.768Z,79.09
2023-04-22T06:57:01.684Z,78.56
2023-04-22T06:59:24.619Z,78.17
2023-04-22T07:01:46.681Z,78.01
2023-04-22T07:04:09.307Z,77.21
2023-04-22T07:06:31.370Z,77.12
2023-04-22T07:08:54.094Z,76.75
2023-04-22T07:11:16.668Z,76.58
2023-04-22T07:13:48.686Z,76.21
2023-04-22T07:16:11.293Z,75.92
2023-04-22T07:18:35.664Z,76.03
2023-04-22T07:20:58.486Z,75.76
2023-04-22T07:23:20.950Z,75.53
2023-04-22T07:25:43.391Z,75.38
2023-04-22T07:28:05.432Z,75.27
2023-04-22T07:30:28.081Z,75.24
2023-04-22T07:32:49.945Z,74.87
2023-04-22T07:35:12.308Z,74.53
2023-04-22T07:37:34.528Z,74.35
2023-04-22T07:39:57.076Z,74.24
2023-04-22T07:42:20.586Z,74.05
2023-04-22T07:44:43.067Z,72.85
2023-04-22T07:47:07.927Z,72.50
2023-04-22T07:49:30.905Z,72.37
2023-04-22T07:51:53.770Z,72.24
2023-04-22T07:54:16.104Z,71.89
2023-04-22T07:56:38.260Z,71.92
2023-04-22T07:59:00.283Z,71.86
2023-04-22T08:01:22.124Z,71.80
2023-04-22T08:03:44.929Z,71.62
2023-04-22T08:06:08.580Z,71.53
2023-04-22T08:08:30.744Z,71.61
2023-04-22T08:10:53.038Z,71.11
2023-04-22T08:13:17.135Z,71.28
2023-04-22T08:15:40.318Z,70.76
2023-04-22T08:18:02.388Z,70.39
2023-04-22T08:20:25.788Z,70.18
2023-04-22T08:22:48.687Z,70.04
2023-04-22T08:25:10.866Z,69.62
2023-04-22T08:27:32.963Z,69.13
2023-04-22T08:29:55.034Z,68.45
2023-04-22T08:32:19.604Z,68.01
2023-04-22T08:34:42.021Z,68.34
2023-04-22T08:37:04.397Z,67.91
2023-04-22T08:39:26.323Z,67.24
2023-04-22T08:41:50.616Z,67.24
2023-04-22T08:44:14.646Z,66.94
2023-04-22T08:46:37.387Z,66.77
2023-04-22T08:49:04.076Z,66.44
2023-04-22T08:51:26.864Z,66.44
2023-04-22T08:53:48.985Z,65.49
2023-04-22T08:56:13.506Z,65.52
2023-04-22T08:58:36.205Z,64.98
2023-04-22T09:01:01.231Z,64.67
2023-04-22T09:03:24.546Z,63.71
2023-04-22T09:05:52.487Z,63.53
2023-04-22T09:08:14.805Z,62.94
2023-04-22T09:10:38.823Z,62.18
2023-04-22T09:13:03.685Z,61.73
2023-04-22T09:15:26.469Z,61.54
2023-04-22T09:17:52.797Z,61.38
2023-04-22T09:20:16.265Z,60.68
2023-04-22T09:22:49.762Z,59.72
2023-04-22T09:25:27.620Z,59.65
2023-04-22T09:27:56.799Z,58.30
2023-04-22T09:30:34.586Z,57.96
2023-04-22T09:33:07.794Z,57.95
2023-04-22T09:35:36.541Z,58.37
2023-04-22T09:38:01.997Z,58.00
2023-04-22T09:40:25.425Z,58.11
2023-04-22T09:42:57.135Z,57.98
2023-04-22T09:45:30.614Z,57.99
2023-04-22T09:47:55.850Z,57.24
2023-04-22T09:50:21.400Z,56.50
2023-04-22T09:52:43.316Z,56.13
2023-04-22T09:55:09.553Z,56.35
2023-04-22T09:57:31.757Z,56.17
2023-04-22T09:59:56.284Z,55.55
2023-04-22T10:02:18.591Z,55.68
2023-04-22T10:04:41.138Z,55.73
2023-04-22T10:07:03.173Z,55.34
2023-04-22T10:09:26.013Z,55.24
2023-04-22T10:11:51.532Z,55.45
2023-04-22T10:14:16.385Z,54.54
2023-04-22T10:16:40.823Z,54.05
2023-04-22T10:19:07.476Z,54.05
2023-04-22T10:21:32.724Z,52.95
2023-04-22T10:23:55.162Z,52.72
2023-04-22T10:26:49.315Z,53.29
2023-04-22T10:29:19.134Z,52.69
2023-04-22T10:31:41.474Z,52.10
2023-04-22T10:34:15.575Z,51.45
2023-04-22T10:37:00.267Z,52.51
2023-04-22T10:39:24.657Z,52.70
2023-04-22T10:42:11.618Z,52.17
2023-04-22T10:44:52.616Z,51.68
2023-04-22T10:47:30.005Z,50.68
2023-04-22T10:49:52.971Z,51.53
2023-04-22T10:52:29.656Z,50.20
2023-04-22T10:54:54.946Z,50.99
2023-04-22T10:57:22.836Z,50.87
2023-04-22T10:59:58.426Z,51.30
2023-04-22T11:02:23.803Z,52.44
2023-04-22T11:04:46.735Z,52.89
2023-04-22T11:07:22.926Z,52.40
2023-04-22T11:10:05.767Z,52.98
2023-04-22T11:12:42.288Z,53.24
2023-04-22T11:15:20.046Z,53.19
2023-04-22T11:17:51.144Z,53.38
2023-04-22T11:20:19.368Z,53.21
2023-04-22T11:22:46.234Z,52.88
2023-04-22T11:25:12.748Z,51.99
2023-04-22T11:27:34.906Z,51.69
2023-04-22T11:30:15.044Z,52.27
2023-04-22T11:32:41.233Z,52.69
2023-04-22T11:35:07.712Z,52.29
2023-04-22T11:37:29.921Z,52.17
2023-04-22T11:40:13.638Z,52.62
2023-04-22T11:42:39.627Z,53.19
2023-04-22T11:45:01.709Z,54.04
2023-04-22T11:47:23.602Z,54.44
2023-04-22T11:50:01.987Z,54.97
2023-04-22T11:52:24.012Z,54.53
2023-04-22T11:54:46.425Z,54.59
2023-04-22T11:57:11.749Z,55.05
2023-04-22T11:59:34.807Z,54.93
2023-04-22T12:01:57.137Z,54.69
2023-04-22T12:04:22.700Z,55.73
2023-04-22T12:06:47.055Z,55.74
2023-04-22T12:09:09.684Z,56.56
2023-04-22T12:11:32.175Z,56.92
2023-04-22T12:13:54.350Z,57.14
2023-04-22T12:16:20.104Z,56.76
2023-04-22T12:18:54.457Z,57.06
2023-04-22T12:21:28.399Z,57.26
2023-04-22T12:23:55.930Z,57.21
2023-04-22T12:26:23.661Z,56.93
2023-04-22T12:28:48.250Z,57.04
2023-04-22T12:31:11.834Z,57.10
2023-04-22T12:33:34.969Z,57.01
2023-04-22T12:35:57.174Z,57.32
2023-04-22T12:38:19.856Z,57.53
2023-04-22T12:40:42.583Z,57.58
2023-04-22T12:43:06.257Z,58.10
2023-04-22T12:45:28.240Z,58.76
2023-04-22T12:47:54.112Z,59.44
2023-04-22T12:50:16.703Z,59.72
2023-04-22T12:52:39.539Z,60.74
2023-04-22T12:55:03.167Z,61.53
2023-04-22T12:57:26.996Z,61.75
2023-04-22T12:59:50.294Z,62.00
2023-04-22T13:02:13.955Z,62.96
2023-04-22T13:04:36.891Z,63.71
2023-04-22T13:07:00.710Z,63.49
2023-04-22T13:09:26.279Z,63.05
2023-04-22T13:11:49.602Z,63.36
2023-04-22T13:14:13.070Z,64.33
2023-04-22T13:16:36.460Z,65.13
2023-04-22T13:18:59.141Z,66.34
2023-04-22T13:21:21.485Z,66.20
2023-04-22T13:23:44.406Z,66.69
2023-04-22T13:26:07.250Z,67.51
2023-04-22T13:28:29.529Z,67.55
2023-04-22T13:30:52.147Z,67.66
2023-04-22T13:33:14.154Z,68.50
2023-04-22T13:35:37.423Z,69.17
2023-04-22T13:37:59.611Z,70.21
2023-04-22T13:40:22.172Z,70.65
2023-04-22T13:42:44.513Z,70.93
2023-04-22T13:45:08.482Z,71.19
2023-04-22T13:47:31.188Z,72.22
2023-04-22T13:49:53.021Z,72.19
2023-04-22T13:52:14.884Z,72.21
2023-04-22T13:54:36.636Z,71.80
2023-04-22T13:56:58.632Z,72.28
2023-04-22T13:59:20.603Z,72.01
2023-04-22T14:01:42.602Z,72.14
2023-04-22T14:04:05.207Z,72.46
2023-04-22T14:06:27.404Z,72.89
2023-04-22T14:08:49.443Z,73.12
2023-04-22T14:11:12.577Z,73.40
2023-04-22T14:13:35.597Z,73.62
2023-04-22T14:15:57.897Z,73.22
2023-04-22T14:18:20.450Z,73.30
2023-04-22T14:20:43.139Z,73.44
2023-04-22T14:23:07.724Z,73.46
2023-04-22T14:25:29.520Z,73.82
2023-04-22T14:27:51.433Z,73.55
2023-04-22T14:30:14.663Z,73.60
2023-04-22T14:32:36.834Z,73.22
2023-04-22T14:34:58.805Z,72.97
2023-04-22T14:37:21.873Z,73.04
2023-04-22T14:39:44.537Z,73.13
2023-04-22T14:42:06.569Z,72.46
2023-04-22T14:44:28.589Z,72.55
2023-04-22T14:46:50.348Z,72.88
2023-04-22T14:49:12.271Z,73.06
2023-04-22T14:51:36.960Z,73.47
2023-04-22T14:53:59.135Z,73.37
2023-04-22T14:56:21.368Z,73.37
2023-04-22T14:58:43.474Z,73.16
2023-04-22T15:01:07.546Z,73.67
2023-04-22T15:03:30.142Z,74.23
2023-04-22T15:05:52.546Z,73.92
2023-04-22T15:08:14.372Z,74.15
2023-04-22T15:10:36.259Z,74.83
2023-04-22T15:12:58.418Z,75.15
2023-04-22T15:15:20.709Z,75.28
2023-04-22T15:17:43.635Z,75.42
2023-04-22T15:20:08.713Z,76.08
2023-04-22T15:22:32.119Z,77.28
2023-04-22T15:24:53.912Z,77.19
2023-04-22T15:27:15.729Z,77.68
2023-04-22T15:29:37.985Z,78.04
2023-04-22T15:32:00.267Z,77.90
2023-04-22T15:34:23.436Z,78.40
2023-04-22T15:36:46.442Z,78.45
2023-04-22T15:39:10.691Z,79.32
2023-04-22T15:41:36.431Z,79.51
2023-04-22T15:43:58.532Z,79.77
2023-04-22T15:46:21.427Z,80.03
2023-04-22T15:48:47.219Z,80.54
2023-04-22T15:51:09.086Z,80.73
2023-04-22T15:53:30.941Z,80.85
2023-04-22T15:55:52.975Z,80.87
2023-04-22T15:58:14.770Z,80.83
2023-04-22T16:00:37.193Z,81.31
2023-04-22T16:02:59.326Z,81.07
2023-04-22T16:05:25.194Z,81.16
2023-04-22T16:07:47.172Z,81.23
2023-04-22T16:10:10.380Z,81.22
2023-04-22T16:12:34.071Z,80.91
2023-04-22T16:14:56.243Z,81.31
2023-04-22T16:17:18.275Z,81.19
2023-04-22T16:19:40.444Z,81.31
2023-04-22T16:22:02.440Z,81.46
2023-04-22T16:24:25.277Z,81.02
2023-04-22T16:26:47.149Z,80.97
2023-04-22T16:29:09.048Z,80.78
2023-04-22T16:31:31.001Z,80.96
2023-04-22T16:33:52.801Z,80.54
2023-04-22T16:36:14.675Z,80.57
2023-04-22T16:38:36.522Z,80.96
2023-04-22T16:40:58.567Z,80.97
2023-04-22T16:43:21.042Z,80.95
2023-04-22T16:45:42.958Z,81.23
2023-04-22T16:48:04.952Z,81.59
2023-04-22T16:50:26.952Z,81.83
2023-04-22T16:52:48.820Z,81.88
2023-04-22T16:55:11.090Z,82.05
2023-04-22T16:57:33.465Z,82.28
2023-04-22T16:59:55.435Z,82.27
2023-04-22T17:02:17.344Z,82.14
2023-04-22T17:04:39.407Z,82.14
2023-04-22T17:07:02.357Z,82.13
2023-04-22T17:09:24.281Z,82.50
2023-04-22T17:11:46.297Z,79.94
2023-04-22T17:14:08.209Z,79.66
2023-04-22T17:16:30.121Z,79.67
2023-04-22T17:18:52.385Z,80.12
2023-04-22T17:21:15.031Z,80.32
2023-04-22T17:23:36.842Z,80.99
2023-04-22T17:25:59.947Z,81.53
2023-04-22T17:28:22.138Z,81.53
2023-04-22T17:30:44.061Z,81.46
2023-04-22T17:33:06.172Z,81.78
2023-04-22T17:35:28.287Z,82.29
2023-04-22T17:37:51.197Z,82.14
2023-04-22T17:40:13.894Z,82.60
2023-04-22T17:42:45.982Z,83.11
2023-04-22T17:45:09.701Z,83.54
2023-04-22T17:47:31.593Z,83.57
2023-04-22T17:49:54.026Z,83.56
2023-04-22T17:52:16.034Z,83.15
2023-04-22T17:54:38.036Z,83.03
2023-04-22T17:56:59.859Z,82.55
2023-04-22T17:59:21.590Z,82.19
2023-04-22T18:01:43.455Z,82.43
2023-04-22T18:04:06.022Z,82.34
2023-04-22T18:06:29.046Z,82.57
2023-04-22T18:08:51.848Z,82.22
2023-04-22T18:11:14.525Z,81.62
2023-04-22T18:13:36.807Z,82.33
2023-04-22T18:16:00.264Z,82.25
2023-04-22T18:18:22.027Z,82.30
2023-04-22T18:20:45.719Z,82.18
2023-04-22T18:23:07.842Z,82.56
2023-04-22T18:25:29.947Z,82.28
2023-04-22T18:27:55.673Z,82.24
2023-04-22T18:30:17.981Z,82.12
2023-04-22T18:32:39.917Z,82.41
2023-04-22T18:35:01.923Z,82.40
2023-04-22T18:37:24.690Z,82.52
2023-04-22T18:39:47.480Z,82.64
2023-04-22T18:42:09.358Z,82.63
2023-04-22T18:44:31.244Z,82.57
2023-04-22T18:46:54.812Z,82.17
2023-04-22T18:49:16.620Z,81.99
2023-04-22T18:51:39.981Z,81.34
2023-04-22T18:54:03.930Z,81.11
2023-04-22T18:56:26.202Z,80.71
2023-04-22T18:58:48.228Z,81.13
2023-04-22T19:01:11.439Z,81.19
2023-04-22T19:03:33.470Z,80.85
2023-04-22T19:05:55.392Z,80.83
2023-04-22T19:08:17.349Z,80.68
2023-04-22T19:10:39.322Z,80.91
2023-04-22T19:13:01.696Z,80.56
2023-04-22T19:15:23.546Z,79.87
2023-04-22T19:17:45.586Z,79.76
2023-04-22T19:20:08.278Z,79.69
2023-04-22T19:22:30.161Z,79.56
2023-04-22T19:24:52.065Z,79.34
2023-04-22T19:27:14.799Z,79.27
2023-04-22T19:29:36.596Z,79.38
2023-04-22T19:31:59.866Z,79.18
2023-04-22T19:34:21.762Z,79.34
2023-04-22T19:36:43.561Z,79.47
2023-04-22T19:39:06.181Z,79.22
2023-04-22T19:41:27.967Z,79.43
2023-04-22T19:43:49.825Z,79.62
2023-04-22T19:46:11.891Z,79.42
2023-04-22T19:48:36.464Z,79.55
2023-04-22T19:50:59.134Z,79.71
2023-04-22T19:53:24.008Z,79.36
2023-04-22T19:55:46.931Z,79.60
2023-04-22T19:58:10.625Z,79.71
2023-04-22T20:00:33.364Z,79.80
2023-04-22T20:02:55.639Z,79.77
2023-04-22T20:05:19.412Z,80.01
2023-04-22T20:07:44.313Z,79.86
2023-04-22T20:10:08.510Z,79.96
2023-04-22T20:12:31.007Z,79.93
2023-04-22T20:14:53.182Z,79.63
2023-04-22T20:17:15.835Z,79.76
2023-04-22T20:19:39.270Z,79.61
2023-04-22T20:22:04.290Z,79.57
2023-04-22T20:24:28.872Z,79.61
2023-04-22T20:26:51.549Z,79.50
2023-04-22T20:29:14.355Z,79.54
2023-04-22T20:31:37.340Z,79.43
2023-04-22T20:34:00.248Z,79.39
2023-04-22T20:36:24.124Z,79.02
2023-04-22T20:38:49.528Z,79.21
2023-04-22T20:41:13.327Z,79.00
2023-04-22T20:43:35.847Z,79.11
2023-04-22T20:45:58.037Z,78.98
2023-04-22T20:48:19.824Z,78.91
2023-04-22T20:50:42.253Z,79.04
2023-04-22T20:53:04.136Z,78.72
2023-04-22T20:55:26.948Z,78.78
2023-04-22T20:57:48.730Z,79.03
2023-04-22T21:00:11.611Z,78.74
2023-04-22T21:02:35.455Z,78.71
2023-04-22T21:04:59.146Z,79.16
2023-04-22T21:07:22.110Z,78.95
2023-04-22T21:09:44.230Z,79.00
2023-04-22T21:12:06.983Z,79.00
2023-04-22T21:14:29.456Z,79.11
2023-04-22T21:17:05.560Z,78.99
2023-04-22T21:19:33.734Z,79.03
2023-04-22T21:21:57.866Z,79.13
2023-04-22T21:24:21.605Z,79.01
2023-04-22T21:26:46.197Z,78.94
2023-04-22T21:29:09.057Z,78.84
2023-04-22T21:31:30.902Z,79.09
2023-04-22T21:33:53.468Z,79.07
2023-04-22T21:36:16.549Z,78.96
2023-04-22T21:38:38.413Z,78.72
2023-04-22T21:41:00.349Z,79.07
2023-04-22T21:43:22.431Z,78.74
2023-04-22T21:45:44.935Z,79.08
2023-04-22T21:48:07.183Z,78.91
2023-04-22T21:50:30.449Z,78.67
2023-04-22T21:52:52.595Z,78.69
2023-04-22T21:55:14.621Z,78.62
2023-04-22T21:57:36.368Z,78.81
2023-04-22T21:59:58.189Z,78.86
2023-04-22T22:02:20.835Z,78.81
2023-04-22T22:04:42.788Z,78.80
2023-04-22T22:07:04.770Z,78.70
2023-04-22T22:09:27.325Z,78.55
2023-04-22T22:11:48.933Z,78.91
2023-04-22T22:14:14.250Z,78.77
2023-04-22T22:16:36.013Z,78.55
2023-04-22T22:18:58.331Z,79.04
2023-04-22T22:21:20.185Z,78.91
2023-04-22T22:23:41.754Z,78.74
2023-04-22T22:26:03.496Z,78.74
2023-04-22T22:28:25.289Z,78.79
2023-04-22T22:30:46.992Z,78.74
2023-04-22T22:33:08.868Z,78.65
2023-04-22T22:35:30.584Z,78.99
2023-04-22T22:37:52.341Z,79.04
2023-04-22T22:40:14.105Z,78.86
2023-04-22T22:42:36.154Z,78.82
2023-04-22T22:44:58.230Z,79.06
2023-04-22T22:47:21.061Z,78.84
2023-04-22T22:49:42.864Z,79.13
2023-04-22T22:52:04.941Z,79.08
2023-04-22T22:54:27.911Z,79.23
2023-04-22T22:56:49.653Z,79.09
2023-04-22T22:59:11.334Z,79.05
2023-04-22T23:01:33.236Z,79.10
2023-04-22T23:03:55.320Z,78.99
2023-04-22T23:06:17.490Z,79.14
2023-04-22T23:08:39.166Z,78.87
2023-04-22T23:11:01.998Z,79.15
2023-04-22T23:13:24.149Z,78.93
2023-04-22T23:15:45.837Z,79.17
2023-04-22T23:18:09.228Z,79.22
2023-04-22T23:20:31.508Z,79.06
2023-04-22T23:22:54.305Z,79.08
2023-04-22T23:25:16.771Z,78.84
2023-04-22T23:27:38.930Z,79.00
2023-04-22T23:30:01.200Z,79.08
2023-04-22T23:32:26.563Z,78.87
2023-04-22T23:34:52.430Z,79.16
2023-04-22T23:37:15.342Z,78.83
2023-04-22T23:39:37.316Z,78.96
2023-04-22T23:41:59.055Z,79.17
2023-04-22T23:44:20.907Z,79.19
2023-04-22T23:46:42.766Z,79.09
2023-04-22T23:49:04.558Z,79.04
2023-04-22T23:51:26.510Z,79.15
2023-04-22T23:53:48.229Z,79.04
2023-04-22T23:56:11.388Z,78.82
2023-04-22T23:58:33.546Z,79.01
